Time;durP1;ratioP1;P1;durP2;ratioP2;P2;SDS_P1;SDS_P2;PMS_P1;PMS_P2;Temp;Humidity;BMP_temperature;BMP_pressure;BME280_temperature;BME280_humidity;BME280_pressure;Samples;Min_cycle;Max_cycle;Signal;HPM_P1;HPM_P2
2022/06/03 00:02:44;;;;;;;0.00;0.00;;;12.40;77.80;;;;;;5030855;28;20107;-69
2022/06/03 00:05:31;;;;;;;0.00;0.00;;;12.40;77.90;;;;;;5030834;28;20561;-69
2022/06/03 00:08:18;;;;;;;0.00;0.00;;;12.40;78.20;;;;;;5036891;28;20040;-69
2022/06/03 00:11:08;;;;;;;0.00;0.00;;;12.40;78.20;;;;;;5040990;28;20060;-68
2022/06/03 00:14:11;;;;;;;0.00;0.00;;;12.40;78.10;;;;;;5010837;28;20095;-68
2022/06/03 00:17:07;;;;;;;0.00;0.00;;;12.40;77.90;;;;;;5011261;28;20141;-68
2022/06/03 00:19:57;;;;;;;0.00;0.00;;;12.40;78.30;;;;;;5021534;28;20049;-68
2022/06/03 00:22:57;;;;;;;0.00;0.00;;;12.30;78.10;;;;;;5031716;28;20053;-68
2022/06/03 00:25:46;;;;;;;0.00;0.00;;;12.40;78.10;;;;;;5030396;28;20047;-68
2022/06/03 00:28:43;;;;;;;0.00;0.00;;;12.30;78.30;;;;;;5030256;28;20091;-68
2022/06/03 00:31:24;;;;;;;0.00;0.00;;;12.30;78.30;;;;;;5020422;28;20041;-67
2022/06/03 00:34:20;;;;;;;0.00;0.00;;;12.30;78.00;;;;;;5030465;28;20176;-68
2022/06/03 00:36:51;;;;;;;0.00;0.00;;;12.30;78.10;;;;;;5030096;28;20497;-67
2022/06/03 00:39:54;;;;;;;0.00;0.00;;;12.20;78.20;;;;;;5029264;28;20466;-68
2022/06/03 00:42:59;;;;;;;0.00;0.00;;;12.20;78.30;;;;;;5020766;28;20146;-68
2022/06/03 00:45:46;;;;;;;0.00;0.00;;;12.20;78.20;;;;;;5034005;28;20685;-69
2022/06/03 00:48:26;;;;;;;0.00;0.00;;;12.20;78.40;;;;;;5029685;28;20087;-68
2022/06/03 00:51:10;;;;;;;0.00;0.00;;;12.10;78.50;;;;;;5019077;28;20600;-68
2022/06/03 00:53:51;;;;;;;0.20;0.20;;;12.20;78.70;;;;;;5046430;28;20044;-68
2022/06/03 00:56:42;;;;;;;0.00;0.00;;;12.20;78.50;;;;;;5024410;28;20060;-68
2022/06/03 00:59:24;;;;;;;0.00;0.00;;;12.20;78.40;;;;;;5020527;28;20049;-68
2022/06/03 01:02:31;;;;;;;0.00;0.00;;;12.20;78.80;;;;;;5026883;28;20041;-68
2022/06/03 01:05:20;;;;;;;0.00;0.00;;;12.10;78.60;;;;;;5027959;28;20048;-68
2022/06/03 01:08:03;;;;;;;0.00;0.00;;;12.10;78.70;;;;;;5037200;28;20147;-67
2022/06/03 01:10:48;;;;;;;0.00;0.00;;;12.10;78.70;;;;;;5027624;28;20053;-68
2022/06/03 01:13:22;;;;;;;0.00;0.00;;;12.10;78.60;;;;;;5028274;28;20042;-67
2022/06/03 01:16:18;;;;;;;0.00;0.00;;;12.10;78.50;;;;;;5028163;28;20038;-67
2022/06/03 01:19:16;;;;;;;0.10;0.10;;;12.10;78.70;;;;;;5027116;28;20092;-67
2022/06/03 01:22:11;;;;;;;0.10;0.10;;;12.10;78.90;;;;;;5027240;28;20041;-67
2022/06/03 01:24:47;;;;;;;0.00;0.00;;;12.10;78.30;;;;;;5028825;28;20049;-68
2022/06/03 01:27:50;;;;;;;0.00;0.00;;;12.00;78.70;;;;;;5029295;28;20052;-68
2022/06/03 01:30:36;;;;;;;0.00;0.00;;;12.10;78.80;;;;;;5027756;28;20054;-68
2022/06/03 01:33:19;;;;;;;0.00;0.00;;;12.00;78.40;;;;;;5029449;28;20406;-68
2022/06/03 01:36:20;;;;;;;0.00;0.00;;;12.00;78.10;;;;;;5027652;28;20164;-68
2022/06/03 01:39:02;;;;;;;0.00;0.00;;;11.90;78.10;;;;;;5018091;28;21317;-68
2022/06/03 01:41:34;;;;;;;0.00;0.00;;;11.90;78.00;;;;;;5027519;28;20041;-68
2022/06/03 01:44:43;;;;;;;0.00;0.00;;;11.80;78.20;;;;;;5028271;28;20038;-68
2022/06/03 01:47:30;;;;;;;0.00;0.00;;;11.80;78.20;;;;;;5027125;28;20050;-68
2022/06/03 01:50:27;;;;;;;0.00;0.00;;;11.70;78.40;;;;;;5027050;28;20073;-68
2022/06/03 01:53:30;;;;;;;0.00;0.00;;;11.70;78.90;;;;;;5007150;28;20045;-68
2022/06/03 01:56:12;;;;;;;0.10;0.10;;;11.70;79.00;;;;;;5028081;28;20045;-67
2022/06/03 01:59:03;;;;;;;0.00;0.00;;;11.70;78.90;;;;;;5026997;28;20183;-68
2022/06/03 02:02:02;;;;;;;0.10;0.10;;;11.70;79.30;;;;;;5031300;28;20083;-68
2022/06/03 02:04:40;;;;;;;0.10;0.10;;;11.70;79.60;;;;;;5031734;28;20071;-68
2022/06/03 02:07:39;;;;;;;0.00;0.00;;;11.60;79.30;;;;;;5029846;28;20038;-68
2022/06/03 02:10:34;;;;;;;0.00;0.00;;;11.60;79.50;;;;;;5029654;28;20104;-68
2022/06/03 02:13:28;;;;;;;0.00;0.00;;;11.60;79.60;;;;;;5021422;28;20049;-68
2022/06/03 02:16:15;;;;;;;0.00;0.00;;;11.60;79.60;;;;;;5029419;28;20498;-68
2022/06/03 02:19:02;;;;;;;0.08;0.08;;;11.60;79.90;;;;;;5030521;28;20805;-68
2022/06/03 02:21:49;;;;;;;0.00;0.00;;;11.60;79.80;;;;;;5030884;28;20061;-68
2022/06/03 02:24:39;;;;;;;0.00;0.00;;;11.60;79.90;;;;;;5031743;28;20049;-68
2022/06/03 02:27:30;;;;;;;0.00;0.00;;;11.60;80.00;;;;;;5028615;28;20041;-68
2022/06/03 02:30:27;;;;;;;0.00;0.00;;;11.60;79.90;;;;;;5030667;28;20049;-68
2022/06/03 02:33:20;;;;;;;0.00;0.00;;;11.60;79.80;;;;;;5031724;28;20046;-68
2022/06/03 02:36:33;;;;;;;0.00;0.00;;;11.60;80.10;;;;;;5030797;28;20137;-68
2022/06/03 02:39:01;;;;;;;0.00;0.00;;;11.60;80.20;;;;;;5029232;28;20033;-68
2022/06/03 02:41:51;;;;;;;0.00;0.00;;;11.60;80.10;;;;;;5030109;28;20044;-68
2022/06/03 02:44:43;;;;;;;0.00;0.00;;;11.60;80.20;;;;;;5031182;28;20411;-68
2022/06/03 02:47:32;;;;;;;0.00;0.00;;;11.60;80.30;;;;;;5029318;28;20080;-68
2022/06/03 02:50:16;;;;;;;0.00;0.00;;;11.60;80.40;;;;;;5030252;28;20041;-68
2022/06/03 02:52:55;;;;;;;0.00;0.00;;;11.60;80.30;;;;;;5031147;28;20042;-67
2022/06/03 02:55:49;;;;;;;0.10;0.10;;;11.60;80.10;;;;;;5029552;28;20145;-68
2022/06/03 02:58:51;;;;;;;0.00;0.00;;;11.60;80.00;;;;;;5030030;28;20060;-68
2022/06/03 03:02:04;;;;;;;0.00;0.00;;;11.60;80.10;;;;;;5033329;28;20041;-68
2022/06/03 03:04:54;;;;;;;0.00;0.00;;;11.50;80.10;;;;;;4984789;28;20052;-68
2022/06/03 03:07:56;;;;;;;0.00;0.00;;;11.50;80.40;;;;;;5029933;28;20056;-68
2022/06/03 03:10:27;;;;;;;0.00;0.00;;;11.50;80.40;;;;;;5028929;28;20084;-68
2022/06/03 03:13:09;;;;;;;0.00;0.00;;;11.50;80.40;;;;;;5030953;28;20033;-68
2022/06/03 03:15:51;;;;;;;0.00;0.00;;;11.50;80.40;;;;;;5029976;28;20048;-69
2022/06/03 03:18:35;;;;;;;0.00;0.00;;;11.50;80.20;;;;;;5030520;28;20049;-67
2022/06/03 03:21:29;;;;;;;0.10;0.10;;;11.50;80.20;;;;;;5029975;28;20123;-67
2022/06/03 03:24:15;;;;;;;0.00;0.00;;;11.50;80.30;;;;;;5011456;28;20049;-68
2022/06/03 03:27:14;;;;;;;0.00;0.00;;;11.40;80.50;;;;;;5012443;28;20050;-68
2022/06/03 03:29:48;;;;;;;0.00;0.00;;;11.50;80.70;;;;;;5022967;28;20061;-68
2022/06/03 03:32:37;;;;;;;0.00;0.00;;;11.50;80.70;;;;;;5025246;28;20141;-68
2022/06/03 03:35:26;;;;;;;0.00;0.00;;;11.50;80.80;;;;;;5010527;28;20069;-68
2022/06/03 03:38:05;;;;;;;0.00;0.00;;;11.50;80.90;;;;;;5029635;28;20049;-68
2022/06/03 03:40:52;;;;;;;0.00;0.00;;;11.40;80.80;;;;;;5035325;28;20068;-68
2022/06/03 03:43:33;;;;;;;0.00;0.00;;;11.50;80.90;;;;;;5011342;28;20050;-68
2022/06/03 03:46:29;;;;;;;0.00;0.00;;;11.50;81.10;;;;;;5012661;28;20044;-68
2022/06/03 03:49:30;;;;;;;0.00;0.00;;;11.50;81.10;;;;;;5029887;28;20049;-67
2022/06/03 03:52:18;;;;;;;0.00;0.00;;;11.50;80.90;;;;;;5020816;28;20078;-67
2022/06/03 03:55:31;;;;;;;0.00;0.00;;;11.40;81.30;;;;;;5011067;28;20112;-67
2022/06/03 03:57:59;;;;;;;0.00;0.00;;;11.50;81.30;;;;;;5031533;28;20041;-67
2022/06/03 04:00:56;;;;;;;0.00;0.00;;;11.50;81.40;;;;;;5046378;28;20048;-68
2022/06/03 04:03:43;;;;;;;0.00;0.00;;;11.50;81.60;;;;;;5030224;28;20152;-67
2022/06/03 04:06:42;;;;;;;0.90;0.77;;;11.50;81.70;;;;;;5024868;28;20581;-67
2022/06/03 04:09:47;;;;;;;0.00;0.00;;;11.60;81.70;;;;;;5010306;28;20054;-67
2022/06/03 04:12:54;;;;;;;0.00;0.00;;;11.60;81.60;;;;;;5011519;28;20042;-67
2022/06/03 04:15:37;;;;;;;0.10;0.10;;;11.60;81.40;;;;;;5007402;28;20046;-67
2022/06/03 04:18:27;;;;;;;0.00;0.00;;;11.60;81.80;;;;;;5011382;28;20104;-67
2022/06/03 04:21:30;;;;;;;0.00;0.00;;;11.60;81.50;;;;;;5010403;28;20046;-67
2022/06/03 04:24:29;;;;;;;0.10;0.10;;;11.60;81.50;;;;;;5030411;28;20049;-68
2022/06/03 04:27:09;;;;;;;0.00;0.00;;;11.60;81.60;;;;;;5018665;28;20049;-68
2022/06/03 04:30:04;;;;;;;0.05;0.05;;;11.60;81.90;;;;;;5040441;28;20405;-68
2022/06/03 04:32:59;;;;;;;0.00;0.00;;;11.60;81.90;;;;;;5019993;28;20058;-69
2022/06/03 04:36:07;;;;;;;0.00;0.00;;;11.70;81.80;;;;;;5032102;28;20052;-68
2022/06/03 04:39:10;;;;;;;0.00;0.00;;;11.70;81.80;;;;;;5010591;28;20060;-69
2022/06/03 04:41:45;;;;;;;0.00;0.00;;;11.80;81.90;;;;;;5010387;28;20046;-68
2022/06/03 04:44:47;;;;;;;0.00;0.00;;;11.80;81.90;;;;;;5010952;28;20085;-68
2022/06/03 04:47:37;;;;;;;0.00;0.00;;;11.90;81.80;;;;;;5019513;28;20045;-67
2022/06/03 04:50:27;;;;;;;0.00;0.00;;;11.90;81.60;;;;;;5018797;28;20132;-67
2022/06/03 04:53:25;;;;;;;0.00;0.00;;;11.80;81.50;;;;;;5029157;28;20498;-67
2022/06/03 04:56:35;;;;;;;0.00;0.00;;;11.90;81.40;;;;;;5028380;28;20053;-66
2022/06/03 04:59:19;;;;;;;0.00;0.00;;;12.00;81.50;;;;;;5029786;28;20489;-67
2022/06/03 05:02:28;;;;;;;0.10;0.10;;;12.00;81.60;;;;;;5029566;28;20052;-67
2022/06/03 05:05:27;;;;;;;0.00;0.00;;;12.10;81.60;;;;;;5009876;28;20045;-67
2022/06/03 05:08:12;;;;;;;0.00;0.00;;;12.10;81.40;;;;;;5016071;28;20091;-67
2022/06/03 05:10:55;;;;;;;0.00;0.00;;;12.10;81.10;;;;;;5049398;28;20094;-66
2022/06/03 05:13:57;;;;;;;0.00;0.00;;;12.20;81.00;;;;;;5039534;28;20125;-67
2022/06/03 05:16:44;;;;;;;0.00;0.00;;;12.20;80.70;;;;;;5044811;28;20081;-67
2022/06/03 05:19:13;;;;;;;0.00;0.00;;;12.20;80.20;;;;;;5015559;28;20503;-67
2022/06/03 05:22:20;;;;;;;0.00;0.00;;;12.30;80.40;;;;;;5010737;28;20514;-67
2022/06/03 05:25:14;;;;;;;0.00;0.00;;;12.30;80.00;;;;;;5028284;28;20061;-66
2022/06/03 05:27:58;;;;;;;0.00;0.00;;;12.30;80.10;;;;;;5021785;28;20038;-67
2022/06/03 05:30:33;;;;;;;0.00;0.00;;;12.40;80.10;;;;;;5021709;28;20694;-67
2022/06/03 05:33:16;;;;;;;0.00;0.00;;;12.50;80.10;;;;;;5031067;28;20048;-67
2022/06/03 05:36:10;;;;;;;0.03;0.03;;;12.50;79.90;;;;;;5009467;28;20499;-67
2022/06/03 05:39:13;;;;;;;0.00;0.00;;;12.50;79.70;;;;;;5023392;28;20048;-67
2022/06/03 05:42:24;;;;;;;0.00;0.00;;;12.60;79.60;;;;;;5009322;28;20049;-68
2022/06/03 05:45:18;;;;;;;0.00;0.00;;;12.60;79.70;;;;;;5022981;28;20494;-67
2022/06/03 05:47:57;;;;;;;0.00;0.00;;;12.70;79.70;;;;;;5037535;28;20049;-67
2022/06/03 05:50:43;;;;;;;0.00;0.00;;;12.80;79.60;;;;;;5029832;28;20077;-68
2022/06/03 05:53:17;;;;;;;0.00;0.00;;;12.80;79.50;;;;;;5035415;28;20051;-67
2022/06/03 05:56:20;;;;;;;0.00;0.00;;;12.80;79.50;;;;;;5040837;28;20076;-68
2022/06/03 05:58:55;;;;;;;0.00;0.00;;;12.90;79.10;;;;;;5040870;28;20092;-67
2022/06/03 06:01:52;;;;;;;0.00;0.00;;;13.00;79.00;;;;;;5028999;28;20052;-68
2022/06/03 06:04:44;;;;;;;0.00;0.00;;;13.10;79.00;;;;;;5022391;28;20049;-69
2022/06/03 06:07:26;;;;;;;0.00;0.00;;;13.10;79.00;;;;;;5010747;28;20450;-66
2022/06/03 06:10:05;;;;;;;0.00;0.00;;;13.20;78.90;;;;;;5013612;28;20565;-66
2022/06/03 06:12:47;;;;;;;0.00;0.00;;;13.60;79.60;;;;;;5028132;28;20405;-66
2022/06/03 06:15:41;;;;;;;0.10;0.10;;;14.30;78.90;;;;;;5026173;28;20043;-65
2022/06/03 06:18:43;;;;;;;0.00;0.00;;;14.90;76.60;;;;;;5009064;28;20050;-65
2022/06/03 06:21:27;;;;;;;0.00;0.00;;;14.90;74.80;;;;;;5025800;28;20379;-65
2022/06/03 06:24:07;;;;;;;0.00;0.00;;;14.80;74.30;;;;;;5016660;28;20054;-65
2022/06/03 06:27:03;;;;;;;0.00;0.00;;;14.70;74.40;;;;;;5028413;28;20530;-64
2022/06/03 06:29:31;;;;;;;0.00;0.00;;;14.50;74.10;;;;;;5015941;28;20041;-65
2022/06/03 06:32:24;;;;;;;0.00;0.00;;;14.40;74.10;;;;;;5025004;28;20042;-69
2022/06/03 06:35:05;;;;;;;0.00;0.00;;;14.40;74.30;;;;;;5023153;28;20613;-68
2022/06/03 06:37:40;;;;;;;0.00;0.00;;;14.40;74.40;;;;;;5024488;28;20109;-67
2022/06/03 06:40:24;;;;;;;0.00;0.00;;;14.40;74.40;;;;;;5020760;28;20068;-68
2022/06/03 06:43:09;;;;;;;0.00;0.00;;;14.40;74.00;;;;;;5012121;28;20177;-68
2022/06/03 06:46:06;;;;;;;0.00;0.00;;;14.40;74.10;;;;;;5019419;28;20057;-68
2022/06/03 06:49:03;;;;;;;0.00;0.00;;;14.40;74.00;;;;;;5021703;28;20049;-68
2022/06/03 06:51:38;;;;;;;0.00;0.00;;;14.50;73.90;;;;;;5039371;28;20042;-68
2022/06/03 06:54:15;;;;;;;0.00;0.00;;;14.50;73.70;;;;;;5037782;28;20453;-68
2022/06/03 06:56:50;;;;;;;0.00;0.00;;;14.50;73.50;;;;;;5019932;28;20050;-68
2022/06/03 06:59:38;;;;;;;0.00;0.00;;;14.60;73.50;;;;;;5019711;28;20069;-68
2022/06/03 07:02:18;;;;;;;0.08;0.08;;;14.60;73.00;;;;;;5036169;28;20045;-68
2022/06/03 07:04:58;;;;;;;0.00;0.00;;;14.70;72.40;;;;;;5029501;28;20053;-67
2022/06/03 07:07:45;;;;;;;0.00;0.00;;;14.80;72.10;;;;;;5018791;28;20540;-68
2022/06/03 07:10:23;;;;;;;0.00;0.00;;;14.80;72.40;;;;;;5012036;28;20790;-68
2022/06/03 07:13:08;;;;;;;0.00;0.00;;;14.90;71.80;;;;;;5027225;28;20685;-68
2022/06/03 07:15:45;;;;;;;0.00;0.00;;;14.90;70.60;;;;;;5040766;28;20056;-69
2022/06/03 07:21:27;;;;;;;0.00;0.00;;;15.10;69.60;;;;;;5019357;28;20061;-68
2022/06/03 07:23:56;;;;;;;0.00;0.00;;;15.10;69.90;;;;;;5016642;28;20045;-71
2022/06/03 07:26:34;;;;;;;0.00;0.00;;;15.20;69.60;;;;;;5022948;28;20065;-66
2022/06/03 07:29:11;;;;;;;0.00;0.00;;;15.40;72.40;;;;;;5028903;28;20403;-70
2022/06/03 07:31:50;;;;;;;0.00;0.00;;;15.80;71.50;;;;;;5022037;28;20061;-71
2022/06/03 07:34:27;;;;;;;0.00;0.00;;;15.90;69.80;;;;;;5024635;28;20056;-71
2022/06/03 07:37:13;;;;;;;0.00;0.00;;;15.90;69.10;;;;;;5020838;28;20049;-70
2022/06/03 07:39:57;;;;;;;0.00;0.00;;;15.80;69.20;;;;;;5031169;28;20045;-70
2022/06/03 07:42:43;;;;;;;0.00;0.00;;;15.90;69.40;;;;;;5011311;28;20049;-70
2022/06/03 07:45:27;;;;;;;0.00;0.00;;;15.90;68.80;;;;;;5012288;28;20042;-70
2022/06/03 07:47:59;;;;;;;0.10;0.10;;;15.90;69.10;;;;;;5017215;28;20095;-71
2022/06/03 07:50:26;;;;;;;;;;;16.00;69.10;;;;;;5031235;28;20118;-70
2022/06/03 07:52:59;;;;;;;0.00;0.00;;;16.10;69.50;;;;;;5014901;28;19922;-70
2022/06/03 07:55:27;;;;;;;0.00;0.00;;;16.10;68.90;;;;;;5037071;28;20748;-70
2022/06/03 07:57:57;;;;;;;0.00;0.00;;;16.20;69.10;;;;;;5031269;28;20052;-71
2022/06/03 08:00:23;;;;;;;0.00;0.00;;;16.20;69.90;;;;;;5028185;28;20041;-68
2022/06/03 08:03:03;;;;;;;0.00;0.00;;;16.50;70.10;;;;;;5030526;28;20046;-68
2022/06/03 08:05:29;;;;;;;0.00;0.00;;;16.70;69.20;;;;;;5028126;28;20049;-67
2022/06/03 08:10:58;;;;;;;0.00;0.00;;;17.10;67.90;;;;;;5029910;28;20053;-67
2022/06/03 08:13:31;;;;;;;;;;;17.10;67.60;;;;;;5042724;28;20642;-66
2022/06/03 08:16:07;;;;;;;0.00;0.00;;;17.20;66.80;;;;;;5034668;28;19990;-68
2022/06/03 08:18:40;;;;;;;0.00;0.00;;;17.30;66.20;;;;;;5033977;28;20041;-68
2022/06/03 08:21:11;;;;;;;0.00;0.00;;;17.30;66.50;;;;;;5028566;28;20038;-65
2022/06/03 08:23:39;;;;;;;0.00;0.00;;;17.30;66.20;;;;;;5041932;28;20049;-68
2022/06/03 08:26:09;;;;;;;0.00;0.00;;;17.30;67.50;;;;;;5028875;28;20077;-65
2022/06/03 08:28:37;;;;;;;0.00;0.00;;;17.20;67.30;;;;;;5028666;28;20072;-67
2022/06/03 08:31:06;;;;;;;0.03;0.03;;;17.20;66.50;;;;;;5026646;28;20068;-67
2022/06/03 08:33:41;;;;;;;0.00;0.00;;;17.20;67.10;;;;;;5023316;28;20042;-66
2022/06/03 08:36:10;;;;;;;0.00;0.00;;;17.20;66.80;;;;;;5018926;28;20399;-66
2022/06/03 08:38:45;;;;;;;0.00;0.00;;;17.20;66.50;;;;;;5029904;28;20418;-66
2022/06/03 08:41:29;;;;;;;0.00;0.00;;;17.20;67.20;;;;;;5029743;28;20064;-67
2022/06/03 08:44:12;;;;;;;0.00;0.00;;;17.20;66.70;;;;;;5025134;28;20050;-67
2022/06/03 08:46:58;;;;;;;0.00;0.00;;;17.20;65.90;;;;;;5045040;28;20104;-67
2022/06/03 08:49:28;;;;;;;0.10;0.10;;;17.30;66.50;;;;;;5030069;28;20057;-67
2022/06/03 08:52:09;;;;;;;0.00;0.00;;;17.30;65.80;;;;;;5010454;28;20042;-67
2022/06/03 08:54:43;;;;;;;0.00;0.00;;;17.30;64.90;;;;;;5018470;28;20141;-66
2022/06/03 08:57:17;;;;;;;0.00;0.00;;;17.30;65.60;;;;;;5029748;28;20046;-66
2022/06/03 08:59:55;;;;;;;0.08;0.08;;;17.40;65.30;;;;;;5029691;28;20422;-66
2022/06/03 09:02:29;;;;;;;0.00;0.00;;;17.40;65.00;;;;;;5029190;28;20045;-66
2022/06/03 09:05:12;;;;;;;2.13;1.00;;;17.50;65.40;;;;;;5028954;28;20563;-66
2022/06/03 09:07:49;;;;;;;0.00;0.00;;;17.50;64.70;;;;;;5010541;28;20045;-66
2022/06/03 09:10:24;;;;;;;0.00;0.00;;;17.60;64.20;;;;;;5009787;28;20535;-67
2022/06/03 09:13:13;;;;;;;0.35;0.32;;;17.60;63.90;;;;;;5026029;28;20052;-66
2022/06/03 09:15:43;;;;;;;0.00;0.00;;;17.60;63.30;;;;;;5009939;28;20052;-66
2022/06/03 09:18:27;;;;;;;0.00;0.00;;;17.60;63.50;;;;;;5009725;28;20049;-66
2022/06/03 09:21:03;;;;;;;0.00;0.00;;;17.70;63.70;;;;;;5010092;28;20046;-66
2022/06/03 09:23:34;;;;;;;0.00;0.00;;;17.70;62.50;;;;;;5029412;28;20112;-67
2022/06/03 09:26:00;;;;;;;0.00;0.00;;;17.80;62.20;;;;;;5024497;28;20482;-68
2022/06/03 09:28:35;;;;;;;0.00;0.00;;;17.80;62.70;;;;;;5028942;28;20044;-67
2022/06/03 09:31:07;;;;;;;0.00;0.00;;;17.90;62.50;;;;;;5026415;28;20593;-67
2022/06/03 09:33:35;;;;;;;0.00;0.00;;;17.90;61.80;;;;;;5028934;28;20410;-66
2022/06/03 09:36:06;;;;;;;0.00;0.00;;;18.00;62.10;;;;;;5020358;28;20042;-67
2022/06/03 09:39:08;;;;;;;0.00;0.00;;;18.10;62.80;;;;;;5028788;28;20072;-67
2022/06/03 09:41:43;;;;;;;0.00;0.00;;;18.20;62.40;;;;;;5028472;28;20167;-67
2022/06/03 09:44:13;;;;;;;0.10;0.10;;;18.30;61.90;;;;;;5028599;28;20049;-67
2022/06/03 09:46:40;;;;;;;0.00;0.00;;;18.40;61.60;;;;;;5022366;28;20041;-68
2022/06/03 09:49:08;;;;;;;0.00;0.00;;;18.40;60.40;;;;;;5009355;28;20042;-67
2022/06/03 09:51:57;;;;;;;0.00;0.00;;;18.50;60.50;;;;;;5028225;28;20089;-67
2022/06/03 09:54:40;;;;;;;0.00;0.00;;;18.50;61.90;;;;;;5028596;28;20410;-68
2022/06/03 09:57:12;;;;;;;0.00;0.00;;;18.60;61.20;;;;;;5034375;28;20069;-68
2022/06/03 09:59:38;;;;;;;;;;;18.50;60.20;;;;;;5029503;28;20045;-70
2022/06/03 10:02:06;;;;;;;0.00;0.00;;;18.60;59.70;;;;;;5028111;28;19927;-68
2022/06/03 10:04:32;;;;;;;0.00;0.00;;;18.60;60.00;;;;;;5028657;28;20056;-72
2022/06/03 10:07:00;;;;;;;0.00;0.00;;;18.70;59.40;;;;;;5017478;28;20057;-67
2022/06/03 10:17:57;;;;;;;0.00;0.00;;;19.10;59.40;;;;;;5013145;28;20057;-67
2022/06/03 10:20:23;;;;;;;0.00;0.00;;;19.20;59.70;;;;;;5011608;28;20046;-71
2022/06/03 10:22:49;;;;;;;0.00;0.00;;;19.30;59.30;;;;;;5013141;28;20049;-68
2022/06/03 10:25:15;;;;;;;0.00;0.00;;;19.30;59.80;;;;;;5013870;28;20050;-67
2022/06/03 10:27:42;;;;;;;0.00;0.00;;;19.30;57.60;;;;;;5014027;28;20089;-68
2022/06/03 10:30:08;;;;;;;0.00;0.00;;;19.40;58.50;;;;;;5022490;28;20042;-68
2022/06/03 10:32:35;;;;;;;0.00;0.00;;;19.30;57.00;;;;;;5024534;28;20394;-69
2022/06/03 10:35:13;;;;;;;0.00;0.00;;;19.40;57.90;;;;;;5027652;28;20698;-66
2022/06/03 10:37:50;;;;;;;0.00;0.00;;;19.50;59.20;;;;;;5033373;28;20056;-71
2022/06/03 10:40:17;;;;;;;0.00;0.00;;;19.50;56.70;;;;;;5024476;28;20138;-71
2022/06/03 10:42:47;;;;;;;0.00;0.00;;;19.60;58.50;;;;;;5032026;28;20133;-71
2022/06/03 10:45:13;;;;;;;0.00;0.00;;;19.70;58.50;;;;;;5030654;28;20480;-67
2022/06/03 10:47:40;;;;;;;0.00;0.00;;;19.70;56.50;;;;;;5031224;28;20033;-67
2022/06/03 10:50:10;;;;;;;0.00;0.00;;;19.80;56.60;;;;;;5029017;28;20056;-70
2022/06/03 11:01:39;;;;;;;0.00;0.00;;;20.00;55.90;;;;;;5012394;28;20053;-69
2022/06/03 11:04:05;;;;;;;0.00;0.00;;;20.00;55.10;;;;;;5012625;28;20042;-67
2022/06/03 11:06:36;;;;;;;0.00;0.00;;;20.00;54.90;;;;;;5022503;28;20048;-66
2022/06/03 11:09:06;;;;;;;0.00;0.00;;;20.00;55.50;;;;;;5031826;28;20045;-67
2022/06/03 11:11:43;;;;;;;0.00;0.00;;;20.00;54.90;;;;;;5032038;28;20049;-67
2022/06/03 11:14:23;;;;;;;0.00;0.00;;;20.10;55.40;;;;;;5031473;28;20048;-66
2022/06/03 11:17:03;;;;;;;0.00;0.00;;;20.20;56.00;;;;;;5032292;28;20055;-66
2022/06/03 11:19:52;;;;;;;0.00;0.00;;;20.30;55.20;;;;;;5042936;28;20080;-66
2022/06/03 11:22:27;;;;;;;0.00;0.00;;;20.30;54.70;;;;;;5031515;28;20050;-66
2022/06/03 11:25:03;;;;;;;0.00;0.00;;;20.40;54.50;;;;;;5030996;28;20041;-66
2022/06/03 11:27:45;;;;;;;0.00;0.00;;;20.50;53.90;;;;;;5030765;28;20045;-66
2022/06/03 11:30:20;;;;;;;0.00;0.00;;;20.50;53.30;;;;;;5031513;28;20037;-67
2022/06/03 11:32:51;;;;;;;0.00;0.00;;;20.60;53.40;;;;;;5031242;28;20069;-67
2022/06/03 11:35:38;;;;;;;0.00;0.00;;;20.60;54.60;;;;;;5029028;28;20045;-67
2022/06/03 11:38:06;;;;;;;0.00;0.00;;;20.80;54.80;;;;;;5030811;28;20050;-67
2022/06/03 11:40:37;;;;;;;0.00;0.00;;;20.80;54.40;;;;;;5031644;28;20053;-67
2022/06/03 11:43:16;;;;;;;0.00;0.00;;;20.90;55.60;;;;;;5030075;28;20585;-67
2022/06/03 11:46:09;;;;;;;0.00;0.00;;;21.00;53.70;;;;;;5031420;28;20050;-67
2022/06/03 11:48:43;;;;;;;0.00;0.00;;;21.00;53.90;;;;;;5030025;28;20049;-67
2022/06/03 11:51:11;;;;;;;0.00;0.00;;;21.00;53.20;;;;;;5031055;28;20045;-67
2022/06/03 11:53:47;;;;;;;0.00;0.00;;;21.00;54.30;;;;;;5031207;28;20037;-67
2022/06/03 11:56:19;;;;;;;0.00;0.00;;;21.00;53.50;;;;;;5030711;28;20034;-67
2022/06/03 11:59:06;;;;;;;0.00;0.00;;;21.10;54.40;;;;;;5031127;28;20046;-67
2022/06/03 12:01:36;;;;;;;0.00;0.00;;;21.10;52.90;;;;;;5031399;28;20053;-67
2022/06/03 12:04:16;;;;;;;0.00;0.00;;;21.00;52.80;;;;;;5030959;28;20045;-67
2022/06/03 12:07:18;;;;;;;0.00;0.00;;;21.00;53.40;;;;;;5029766;28;20049;-67
2022/06/03 12:09:47;;;;;;;;;;;21.00;52.30;;;;;;5024225;28;20399;-67
2022/06/03 12:15:35;;;;;;;0.00;0.00;;;21.00;52.20;;;;;;5030668;28;20053;-67
2022/06/03 12:18:06;;;;;;;0.00;0.00;;;21.00;51.20;;;;;;5030355;28;20049;-68
2022/06/03 12:20:32;;;;;;;0.00;0.00;;;21.00;51.70;;;;;;5030932;28;20057;-67
2022/06/03 12:23:12;;;;;;;0.00;0.00;;;21.10;52.80;;;;;;5030070;28;20045;-67
2022/06/03 12:25:41;;;;;;;0.00;0.00;;;21.20;51.50;;;;;;5029967;28;20508;-69
2022/06/03 12:28:26;;;;;;;0.00;0.00;;;21.20;51.00;;;;;;5030040;28;20580;-69
2022/06/03 12:30:53;;;;;;;0.00;0.00;;;21.20;51.30;;;;;;5029999;28;20113;-69
2022/06/03 12:33:20;;;;;;;0.00;0.00;;;21.30;51.80;;;;;;5029994;28;20033;-69
2022/06/03 12:35:48;;;;;;;0.00;0.00;;;21.30;51.20;;;;;;5030480;28;20124;-69
2022/06/03 12:38:20;;;;;;;0.00;0.00;;;21.20;51.60;;;;;;5029523;28;20824;-69
2022/06/03 12:40:46;;;;;;;0.05;0.05;;;21.20;51.40;;;;;;5029663;28;20053;-68
2022/06/03 12:43:25;;;;;;;0.00;0.00;;;21.30;51.60;;;;;;5026555;28;20399;-69
2022/06/03 12:46:04;;;;;;;0.00;0.00;;;21.50;50.00;;;;;;5044726;28;20067;-69
2022/06/03 12:48:53;;;;;;;0.00;0.00;;;21.50;51.30;;;;;;5051019;28;20052;-70
2022/06/03 12:51:22;;;;;;;0.00;0.00;;;21.50;50.50;;;;;;5028381;28;20439;-69
2022/06/03 12:53:49;;;;;;;0.00;0.00;;;21.40;50.30;;;;;;5025116;28;20506;-69
2022/06/03 12:56:27;;;;;;;0.00;0.00;;;21.40;51.20;;;;;;5028634;28;20072;-69
2022/06/03 12:58:56;;;;;;;0.00;0.00;;;21.60;51.30;;;;;;5029582;28;20041;-70
2022/06/03 13:01:57;;;;;;;0.00;0.00;;;21.70;52.00;;;;;;5028811;28;20103;-70
2022/06/03 13:04:47;;;;;;;0.20;0.20;;;21.70;49.70;;;;;;5003635;28;20104;-69
2022/06/03 13:07:27;;;;;;;0.32;0.32;;;21.70;50.70;;;;;;5040091;28;20057;-69
2022/06/03 13:10:16;;;;;;;0.00;0.00;;;21.60;51.70;;;;;;5027282;28;20091;-69
2022/06/03 13:12:42;;;;;;;0.00;0.00;;;21.50;52.80;;;;;;5026946;28;20046;-69
2022/06/03 13:15:17;;;;;;;0.00;0.00;;;21.50;53.30;;;;;;5028383;28;20033;-69
2022/06/03 13:18:09;;;;;;;0.00;0.00;;;21.50;53.40;;;;;;5033676;28;20096;-69
2022/06/03 13:20:40;;;;;;;0.00;0.00;;;21.50;52.90;;;;;;5024117;28;20053;-69
2022/06/03 13:23:29;;;;;;;0.00;0.00;;;21.50;53.10;;;;;;5029214;28;20041;-69
2022/06/03 13:26:15;;;;;;;0.00;0.00;;;21.50;53.20;;;;;;5018294;28;20057;-69
2022/06/03 13:28:43;;;;;;;0.00;0.00;;;21.60;52.80;;;;;;5029165;28;20054;-69
2022/06/03 13:31:26;;;;;;;3.20;1.65;;;21.60;52.50;;;;;;5028903;28;20041;-68
2022/06/03 13:34:10;;;;;;;0.00;0.00;;;21.50;52.80;;;;;;5017534;28;20049;-68
2022/06/03 13:37:23;;;;;;;0.57;0.55;;;21.60;52.40;;;;;;5021063;28;20059;-69
2022/06/03 13:39:49;;;;;;;0.00;0.00;;;21.60;52.30;;;;;;5027140;28;20072;-69
2022/06/03 13:44:59;;;;;;;0.00;0.00;;;21.60;52.00;;;;;;5034061;28;20045;-69
2022/06/03 13:47:49;;;;;;;0.00;0.00;;;21.60;51.30;;;;;;5031176;28;20068;-68
2022/06/03 13:50:14;;;;;;;0.20;0.20;;;21.60;52.00;;;;;;5029455;28;20045;-69
2022/06/03 13:52:48;;;;;;;0.00;0.00;;;21.60;51.70;;;;;;5028862;28;20576;-69
2022/06/03 13:55:32;;;;;;;0.00;0.00;;;21.60;51.30;;;;;;5029108;28;20044;-69
2022/06/03 13:58:06;;;;;;;0.00;0.00;;;21.60;51.40;;;;;;5029780;28;20098;-69
2022/06/03 14:00:50;;;;;;;0.00;0.00;;;21.70;51.30;;;;;;5030247;28;20125;-68
2022/06/03 14:03:40;;;;;;;0.00;0.00;;;21.60;51.10;;;;;;5038361;28;20084;-69
2022/06/03 14:06:23;;;;;;;1.35;1.25;;;21.60;51.30;;;;;;5028810;28;20577;-69
2022/06/03 14:09:15;;;;;;;0.00;0.00;;;21.50;50.90;;;;;;5030247;28;20076;-69
2022/06/03 14:11:46;;;;;;;0.00;0.00;;;21.50;51.00;;;;;;5030621;28;20042;-69
2022/06/03 14:14:24;;;;;;;0.00;0.00;;;21.50;51.50;;;;;;5029219;28;20053;-69
2022/06/03 14:16:57;;;;;;;0.00;0.00;;;21.60;51.80;;;;;;5032301;28;20064;-69
2022/06/03 14:19:32;;;;;;;0.63;0.52;;;21.70;51.40;;;;;;5030977;28;20052;-69
2022/06/03 14:22:03;;;;;;;0.08;0.08;;;21.70;51.40;;;;;;5027859;28;20054;-69
2022/06/03 14:24:37;;;;;;;0.00;0.00;;;21.70;51.30;;;;;;5029541;28;20503;-70
2022/06/03 14:27:13;;;;;;;0.00;0.00;;;21.80;51.30;;;;;;5030139;28;20038;-70
2022/06/03 14:30:17;;;;;;;0.00;0.00;;;21.80;49.50;;;;;;5029044;28;20049;-69
2022/06/03 14:32:51;;;;;;;1.35;0.90;;;21.60;49.80;;;;;;5038303;28;20069;-69
2022/06/03 14:35:29;;;;;;;0.00;0.00;;;21.60;49.70;;;;;;5027998;28;20045;-69
2022/06/03 14:38:17;;;;;;;0.40;0.40;;;21.60;48.90;;;;;;5027735;28;20444;-69